Haworth, United Kingdom
Current Conditions -  °F | °C
As of 4:20 PM on Tuesday 21 Oct 2014 (Local Time) from EGNM Reporting Station
Few Clouds Few Clouds  
Wind Chill: 37°   Ceiling: Unl
Heat Index: 46°   Visibility: 6mi
Dew Point: 32°   Wind: 33mph
Humidity: 57%   Direction: 300°WNW
Pressure: 29.68"   Gusts: 49mph
Location:  53.83°N, 1.95°W
Report Text: EGNM 211520Z 30029G43KT 9999 FEW010 FEW029CB 08/00 Q1005
Loading
Personal Weather Stations






























Interactive Weather Map
Tropical Storm Tracking
New forecast layout! Learn more

10-Day Weather Forecast

Advertisements
Track Severe Weather on mobile